Time,TemperatureF,DewpointF,PressureIn,WindDirection,WindDirectionDegrees,WindSpeedMPH,WindSpeedGustMPH,Humidity,HourlyPrecipIn,Conditions,Clouds,dailyrainin,SoftwareType,DateUTC
2013-05-26 00:01:00,56.0,36.0,30.14,West,276,4.0,-999.0,47,-99.99,,,0.00,weatherlink.com 1.10,2013-05-26 04:01:00,
2013-05-26 00:16:00,55.9,36.0,30.14,WNW,284,0.0,-999.0,47,-99.99,,,0.00,weatherlink.com 1.10,2013-05-26 04:16:00,
2013-05-26 00:31:00,55.6,35.0,30.14,WNW,283,0.0,-999.0,47,-99.99,,,0.00,weatherlink.com 1.10,2013-05-26 04:31:00,
2013-05-26 00:46:00,55.0,36.0,30.14,WNW,283,0.0,-999.0,49,-99.99,,,0.00,weatherlink.com 1.10,2013-05-26 04:46:00,
2013-05-26 01:01:00,54.4,36.0,30.14,West,274,2.0,-999.0,50,-99.99,,,0.00,weatherlink.com 1.10,2013-05-26 05:01:00,
2013-05-26 01:16:00,54.1,36.0,30.14,WNW,288,0.0,-999.0,51,-99.99,,,0.00,weatherlink.com 1.10,2013-05-26 05:16:00,
2013-05-26 01:31:00,53.9,36.0,30.14,West,259,0.0,-999.0,51,-99.99,,,0.00,weatherlink.com 1.10,2013-05-26 05:31:00,
2013-05-26 01:46:00,53.5,36.0,30.14,SW,230,4.0,-999.0,51,-99.99,,,0.00,weatherlink.com 1.10,2013-05-26 05:46:00,
2013-05-26 02:01:00,53.2,36.0,30.14,West,274,1.0,-999.0,52,-99.99,,,0.00,weatherlink.com 1.10,2013-05-26 06:01:00,
2013-05-26 02:16:00,53.1,36.0,30.14,West,276,0.0,-999.0,52,-99.99,,,0.00,weatherlink.com 1.10,2013-05-26 06:16:00,
2013-05-26 02:31:00,52.9,35.0,30.14,West,266,0.0,-999.0,52,-99.99,,,0.00,weatherlink.com 1.10,2013-05-26 06:31:00,
2013-05-26 02:46:00,52.3,36.0,30.14,West,278,4.0,-999.0,54,-99.99,,,0.00,weatherlink.com 1.10,2013-05-26 06:46:00,
2013-05-26 03:01:00,52.0,36.0,30.14,West,281,0.0,-999.0,54,-99.99,,,0.00,weatherlink.com 1.10,2013-05-26 07:01:00,
2013-05-26 03:16:00,51.9,36.0,30.14,WNW,298,0.0,-999.0,55,-99.99,,,0.00,weatherlink.com 1.10,2013-05-26 07:16:00,
2013-05-26 03:31:00,51.7,36.0,30.14,NW,323,3.0,-999.0,55,-99.99,,,0.00,weatherlink.com 1.10,2013-05-26 07:31:00,
2013-05-26 03:46:00,51.6,36.0,30.14,NW,319,0.0,-999.0,56,-99.99,,,0.00,weatherlink.com 1.10,2013-05-26 07:46:00,
2013-05-26 04:01:00,51.1,36.0,30.14,WNW,294,2.0,-999.0,56,-99.99,,,0.00,weatherlink.com 1.10,2013-05-26 08:01:00,
2013-05-26 04:16:00,50.4,36.0,30.14,West,280,0.0,-999.0,59,-99.99,,,0.00,weatherlink.com 1.10,2013-05-26 08:16:00,
2013-05-26 04:31:00,49.4,37.0,30.14,West,280,0.0,-999.0,62,-99.99,,,0.00,weatherlink.com 1.10,2013-05-26 08:31:00,
2013-05-26 04:46:00,48.5,37.0,30.15,West,279,0.0,-999.0,65,-99.99,,,0.00,weatherlink.com 1.10,2013-05-26 08:46:00,
2013-05-26 05:01:00,47.7,37.0,30.16,West,279,0.0,-999.0,67,-99.99,,,0.00,weatherlink.com 1.10,2013-05-26 09:01:00,
2013-05-26 05:16:00,47.9,37.0,30.16,WNW,293,0.0,-999.0,66,-99.99,,,0.00,weatherlink.com 1.10,2013-05-26 09:16:00,
2013-05-26 05:31:00,48.2,37.0,30.16,West,278,0.0,-999.0,65,-99.99,,,0.00,weatherlink.com 1.10,2013-05-26 09:31:00,
2013-05-26 05:46:00,47.7,37.0,30.16,WNW,286,0.0,-999.0,67,-99.99,,,0.00,weatherlink.com 1.10,2013-05-26 09:46:00,
2013-05-26 06:01:00,48.0,37.0,30.17,SW,231,0.0,-999.0,67,-99.99,,,0.00,weatherlink.com 1.10,2013-05-26 10:01:00,
2013-05-26 06:16:00,48.5,38.0,30.17,West,270,0.0,-999.0,66,-99.99,,,0.00,weatherlink.com 1.10,2013-05-26 10:16:00,
2013-05-26 06:31:00,49.2,38.0,30.17,West,262,0.0,-999.0,65,-99.99,,,0.00,weatherlink.com 1.10,2013-05-26 10:31:00,
2013-05-26 06:46:00,49.6,39.0,30.18,West,264,0.0,-999.0,67,-99.99,,,0.00,weatherlink.com 1.10,2013-05-26 10:46:00,
2013-05-26 07:01:00,50.4,39.0,30.18,NW,311,4.0,-999.0,65,-99.99,,,0.00,weatherlink.com 1.10,2013-05-26 11:01:00,
2013-05-26 07:16:00,51.6,40.0,30.18,West,279,0.0,-999.0,64,-99.99,,,0.00,weatherlink.com 1.10,2013-05-26 11:16:00,
2013-05-26 07:31:00,52.2,39.0,30.19,West,275,4.0,-999.0,62,-99.99,,,0.00,weatherlink.com 1.10,2013-05-26 11:31:00,
2013-05-26 07:46:00,53.2,40.0,30.19,WNW,292,1.0,-999.0,61,-99.99,,,0.00,weatherlink.com 1.10,2013-05-26 11:46:00,
2013-05-26 08:01:00,53.8,39.0,30.19,WNW,283,6.0,-999.0,58,-99.99,,,0.00,weatherlink.com 1.10,2013-05-26 12:01:00,
2013-05-26 08:16:00,54.7,40.0,30.19,NNW,343,8.0,-999.0,57,-99.99,,,0.00,weatherlink.com 1.10,2013-05-26 12:16:00,
2013-05-26 08:31:00,55.6,39.0,30.19,NW,316,0.0,-999.0,55,-99.99,,,0.00,weatherlink.com 1.10,2013-05-26 12:31:00,
2013-05-26 08:46:00,56.2,39.0,30.20,NW,325,4.0,-999.0,53,-99.99,,,0.00,weatherlink.com 1.10,2013-05-26 12:46:00,
2013-05-26 09:01:00,57.3,40.0,30.20,WNW,300,0.0,-999.0,53,-99.99,,,0.00,weatherlink.com 1.10,2013-05-26 13:01:00,
2013-05-26 09:16:00,58.3,41.0,30.20,West,274,5.0,-999.0,53,-99.99,,,0.00,weatherlink.com 1.10,2013-05-26 13:16:00,
2013-05-26 09:31:00,58.6,39.0,30.20,NNW,347,6.0,-999.0,48,-99.99,,,0.00,weatherlink.com 1.10,2013-05-26 13:31:00,
2013-05-26 09:46:00,59.5,39.0,30.20,NW,304,2.0,-999.0,47,-99.99,,,0.00,weatherlink.com 1.10,2013-05-26 13:46:00,
2013-05-26 10:01:00,60.2,38.0,30.19,WSW,255,7.0,-999.0,44,-99.99,,,0.00,weatherlink.com 1.10,2013-05-26 14:01:00,
2013-05-26 10:16:00,60.7,38.0,30.19,WNW,303,3.0,-999.0,44,-99.99,,,0.00,weatherlink.com 1.10,2013-05-26 14:16:00,
2013-05-26 10:31:00,62.0,38.0,30.19,North,359,3.0,-999.0,42,-99.99,,,0.00,weatherlink.com 1.10,2013-05-26 14:31:00,
2013-05-26 10:46:00,62.6,38.0,30.19,NW,322,7.0,-999.0,41,-99.99,,,0.00,weatherlink.com 1.10,2013-05-26 14:46:00,
2013-05-26 11:01:00,62.9,38.0,30.19,NW,319,10.0,-999.0,40,-99.99,,,0.00,weatherlink.com 1.10,2013-05-26 15:01:00,
2013-05-26 11:16:00,63.7,37.0,30.18,West,276,4.0,-999.0,37,-99.99,,,0.00,weatherlink.com 1.10,2013-05-26 15:16:00,
2013-05-26 11:31:00,63.5,36.0,30.18,WNW,293,5.0,-999.0,36,-99.99,,,0.00,weatherlink.com 1.10,2013-05-26 15:31:00,
2013-05-26 11:46:00,64.0,35.0,30.17,NNW,329,9.0,-999.0,34,-99.99,,,0.00,weatherlink.com 1.10,2013-05-26 15:46:00,
2013-05-26 12:01:00,64.0,37.0,30.17,SW,219,4.0,-999.0,37,-99.99,,,0.00,weatherlink.com 1.10,2013-05-26 16:01:00,
2013-05-26 12:16:00,64.7,37.0,30.17,WNW,302,4.0,-999.0,36,-99.99,,,0.00,weatherlink.com 1.10,2013-05-26 16:16:00,
2013-05-26 12:31:00,65.2,38.0,30.17,NNW,341,3.0,-999.0,37,-99.99,,,0.00,weatherlink.com 1.10,2013-05-26 16:31:00,
2013-05-26 12:46:00,65.3,37.0,30.17,North,352,1.0,-999.0,35,-99.99,,,0.00,weatherlink.com 1.10,2013-05-26 16:46:00,
2013-05-26 13:01:00,65.6,39.0,30.17,North,1,4.0,-999.0,38,-99.99,,,0.00,weatherlink.com 1.10,2013-05-26 17:01:00,
2013-05-26 13:16:00,65.8,38.0,30.16,NW,309,5.0,-999.0,36,-99.99,,,0.00,weatherlink.com 1.10,2013-05-26 17:16:00,
2013-05-26 13:31:00,66.8,37.0,30.16,North,6,4.0,-999.0,34,-99.99,,,0.00,weatherlink.com 1.10,2013-05-26 17:31:00,
2013-05-26 13:46:00,66.8,38.0,30.15,West,274,9.0,-999.0,35,-99.99,,,0.00,weatherlink.com 1.10,2013-05-26 17:46:00,
2013-05-26 14:01:00,67.3,37.0,30.14,WNW,290,9.0,-999.0,33,-99.99,,,0.00,weatherlink.com 1.10,2013-05-26 18:01:00,
2013-05-26 14:16:00,67.1,38.0,30.14,WNW,285,0.0,-999.0,34,-99.99,,,0.00,weatherlink.com 1.10,2013-05-26 18:16:00,
2013-05-26 14:31:00,67.6,38.0,30.13,NNW,340,6.0,-999.0,34,-99.99,,,0.00,weatherlink.com 1.10,2013-05-26 18:31:00,
2013-05-26 14:46:00,67.9,38.0,30.13,West,265,1.0,-999.0,34,-99.99,,,0.00,weatherlink.com 1.10,2013-05-26 18:46:00,
2013-05-26 15:01:00,68.6,37.0,30.13,North,355,3.0,-999.0,31,-99.99,,,0.00,weatherlink.com 1.10,2013-05-26 19:01:00,
2013-05-26 15:16:00,68.8,41.0,30.13,WSW,257,2.0,-999.0,36,-99.99,,,0.00,weatherlink.com 1.10,2013-05-26 19:16:00,
2013-05-26 15:31:00,68.8,37.0,30.14,NNW,348,3.0,-999.0,31,-99.99,,,0.00,weatherlink.com 1.10,2013-05-26 19:31:00,
2013-05-26 15:46:00,69.6,38.0,30.12,NNE,18,0.0,-999.0,31,-99.99,,,0.00,weatherlink.com 1.10,2013-05-26 19:46:00,
2013-05-26 16:01:00,69.4,39.0,30.12,WSW,243,3.0,-999.0,33,-99.99,,,0.00,weatherlink.com 1.10,2013-05-26 20:01:00,
2013-05-26 16:16:00,69.8,38.0,30.12,NW,326,12.0,-999.0,31,-99.99,,,0.00,weatherlink.com 1.10,2013-05-26 20:16:00,
2013-05-26 16:31:00,69.9,38.0,30.12,North,351,7.0,-999.0,31,-99.99,,,0.00,weatherlink.com 1.10,2013-05-26 20:31:00,
2013-05-26 16:46:00,70.4,39.0,30.12,NW,315,3.0,-999.0,32,-99.99,,,0.00,weatherlink.com 1.10,2013-05-26 20:46:00,
2013-05-26 17:01:00,69.9,38.0,30.12,NNW,338,7.0,-999.0,31,-99.99,,,0.00,weatherlink.com 1.10,2013-05-26 21:01:00,
2013-05-26 17:16:00,70.1,37.0,30.12,NW,304,4.0,-999.0,30,-99.99,,,0.00,weatherlink.com 1.10,2013-05-26 21:16:00,
2013-05-26 17:31:00,70.4,38.0,30.12,NW,319,3.0,-999.0,31,-99.99,,,0.00,weatherlink.com 1.10,2013-05-26 21:31:00,
2013-05-26 17:46:00,70.8,37.0,30.11,WNW,300,10.0,-999.0,29,-99.99,,,0.00,weatherlink.com 1.10,2013-05-26 21:46:00,
2013-05-26 18:01:00,70.8,39.0,30.12,North,350,1.0,-999.0,32,-99.99,,,0.00,weatherlink.com 1.10,2013-05-26 22:01:00,
2013-05-26 18:16:00,71.1,39.0,30.12,WNW,303,1.0,-999.0,31,-99.99,,,0.00,weatherlink.com 1.10,2013-05-26 22:16:00,
2013-05-26 18:31:00,70.4,37.0,30.12,NNE,18,3.0,-999.0,29,-99.99,,,0.00,weatherlink.com 1.10,2013-05-26 22:31:00,
2013-05-26 18:46:00,70.4,36.0,30.12,NW,317,1.0,-999.0,28,-99.99,,,0.00,weatherlink.com 1.10,2013-05-26 22:46:00,
2013-05-26 19:01:00,70.1,36.0,30.13,North,359,1.0,-999.0,29,-99.99,,,0.00,weatherlink.com 1.10,2013-05-26 23:01:00,
2013-05-26 19:16:00,69.8,39.0,30.13,NW,311,0.0,-999.0,32,-99.99,,,0.00,weatherlink.com 1.10,2013-05-26 23:16:00,
2013-05-26 19:31:00,68.4,38.0,30.13,NW,309,0.0,-999.0,33,-99.99,,,0.00,weatherlink.com 1.10,2013-05-26 23:31:00,
2013-05-26 19:46:00,67.9,36.0,30.14,NNW,330,0.0,-999.0,31,-99.99,,,0.00,weatherlink.com 1.10,2013-05-26 23:46:00,
2013-05-26 20:01:00,66.3,39.0,30.14,NNW,330,0.0,-999.0,37,-99.99,,,0.00,weatherlink.com 1.10,2013-05-27 00:01:00,
2013-05-26 20:16:00,62.9,42.0,30.15,NNW,330,0.0,-999.0,46,-99.99,,,0.00,weatherlink.com 1.10,2013-05-27 00:16:00,
2013-05-26 20:31:00,61.0,42.0,30.15,NNW,330,0.0,-999.0,50,-99.99,,,0.00,weatherlink.com 1.10,2013-05-27 00:31:00,
2013-05-26 20:46:00,59.5,41.0,30.16,NNW,330,0.0,-999.0,51,-99.99,,,0.00,weatherlink.com 1.10,2013-05-27 00:46:00,
2013-05-26 21:01:00,58.1,44.0,30.16,NNW,330,0.0,-999.0,60,-99.99,,,0.00,weatherlink.com 1.10,2013-05-27 01:01:00,
2013-05-26 21:16:00,57.0,44.0,30.17,NNW,330,0.0,-999.0,62,-99.99,,,0.00,weatherlink.com 1.10,2013-05-27 01:16:00,
2013-05-26 21:31:00,56.2,45.0,30.17,NNW,330,0.0,-999.0,66,-99.99,,,0.00,weatherlink.com 1.10,2013-05-27 01:31:00,
2013-05-26 21:46:00,55.1,45.0,30.18,NNW,330,0.0,-999.0,68,-99.99,,,0.00,weatherlink.com 1.10,2013-05-27 01:46:00,
2013-05-26 22:01:00,54.8,45.0,30.18,NNW,330,0.0,-999.0,69,-99.99,,,0.00,weatherlink.com 1.10,2013-05-27 02:01:00,
2013-05-26 22:16:00,54.2,45.0,30.19,NNW,330,0.0,-999.0,71,-99.99,,,0.00,weatherlink.com 1.10,2013-05-27 02:16:00,
2013-05-26 22:31:00,52.9,45.0,30.19,NNW,330,0.0,-999.0,75,-99.99,,,0.00,weatherlink.com 1.10,2013-05-27 02:31:00,
2013-05-26 22:46:00,52.3,45.0,30.19,NNW,330,0.0,-999.0,76,-99.99,,,0.00,weatherlink.com 1.10,2013-05-27 02:46:00,
2013-05-26 23:01:00,52.0,45.0,30.20,NNW,330,0.0,-999.0,77,-99.99,,,0.00,weatherlink.com 1.10,2013-05-27 03:01:00,
2013-05-26 23:16:00,51.4,45.0,30.20,NNW,330,0.0,-999.0,79,-99.99,,,0.00,weatherlink.com 1.10,2013-05-27 03:16:00,
2013-05-26 23:31:00,51.3,45.0,30.20,NNW,330,0.0,-999.0,79,-99.99,,,0.00,weatherlink.com 1.10,2013-05-27 03:31:00,
2013-05-26 23:46:00,50.8,45.0,30.21,NNW,330,0.0,-999.0,79,-99.99,,,0.00,weatherlink.com 1.10,2013-05-27 03:46:00,